sensor_id;sensor_type;location;lat;lon;timestamp;pressure;altitude;pressure_sealevel;temperature;humidity
62976;BME280;49071;0.000;0.000;2023-02-26T07:01:40;100913.47;;;16.32;36.67
62976;BME280;49071;0.000;0.000;2023-02-26T07:04:40;100917.16;;;16.26;36.64
62976;BME280;49071;0.000;0.000;2023-02-26T07:07:40;100915.25;;;16.32;36.98
62976;BME280;49071;0.000;0.000;2023-02-26T07:10:41;100922.59;;;16.45;36.54
62976;BME280;49071;0.000;0.000;2023-02-26T07:13:41;100930.81;;;16.60;36.40
62976;BME280;49071;0.000;0.000;2023-02-26T07:16:41;100933.56;;;16.80;36.27
62976;BME280;49071;0.000;0.000;2023-02-26T07:19:41;100937.00;;;17.04;36.39
62976;BME280;49071;0.000;0.000;2023-02-26T07:22:43;100945.22;;;17.18;36.14
62976;BME280;49071;0.000;0.000;2023-02-26T07:25:43;100958.50;;;17.36;36.01
62976;BME280;49071;0.000;0.000;2023-02-26T07:28:43;100964.84;;;17.52;35.72
62976;BME280;49071;0.000;0.000;2023-02-26T07:31:44;100958.91;;;17.69;35.70
62976;BME280;49071;0.000;0.000;2023-02-26T07:34:44;100965.28;;;17.85;35.51
62976;BME280;49071;0.000;0.000;2023-02-26T07:37:44;100968.03;;;18.03;35.26
62976;BME280;49071;0.000;0.000;2023-02-26T07:40:44;100976.56;;;18.08;35.17
62976;BME280;49071;0.000;0.000;2023-02-26T07:43:45;100979.06;;;18.11;35.21
62976;BME280;49071;0.000;0.000;2023-02-26T07:46:45;100981.63;;;18.12;35.15
62976;BME280;49071;0.000;0.000;2023-02-26T07:49:46;100987.91;;;18.08;34.90
62976;BME280;49071;0.000;0.000;2023-02-26T07:52:46;100995.91;;;18.05;34.99
62976;BME280;49071;0.000;0.000;2023-02-26T07:55:47;100993.56;;;17.99;35.12
62976;BME280;49071;0.000;0.000;2023-02-26T07:58:47;101003.19;;;17.99;34.97
62976;BME280;49071;0.000;0.000;2023-02-26T08:01:47;101003.06;;;18.02;35.26
62976;BME280;49071;0.000;0.000;2023-02-26T08:04:47;101010.56;;;18.11;35.08
62976;BME280;49071;0.000;0.000;2023-02-26T08:07:47;101011.94;;;18.20;35.06
62976;BME280;49071;0.000;0.000;2023-02-26T08:10:48;101010.50;;;18.33;34.80
62976;BME280;49071;0.000;0.000;2023-02-26T08:13:48;101023.31;;;18.40;34.51
62976;BME280;49071;0.000;0.000;2023-02-26T08:16:48;101032.63;;;18.48;34.66
62976;BME280;49071;0.000;0.000;2023-02-26T08:19:48;101030.66;;;18.53;34.58
62976;BME280;49071;0.000;0.000;2023-02-26T08:22:49;101035.50;;;18.62;34.57
62976;BME280;49071;0.000;0.000;2023-02-26T08:25:49;101036.44;;;18.61;34.41
62976;BME280;49071;0.000;0.000;2023-02-26T08:28:50;101048.72;;;18.60;34.35
62976;BME280;49071;0.000;0.000;2023-02-26T08:31:50;101049.47;;;18.62;34.24
62976;BME280;49071;0.000;0.000;2023-02-26T08:34:51;101051.38;;;18.59;34.48
62976;BME280;49071;0.000;0.000;2023-02-26T08:37:51;101055.94;;;18.55;34.63
62976;BME280;49071;0.000;0.000;2023-02-26T08:40:51;101057.50;;;18.59;34.35
62976;BME280;49071;0.000;0.000;2023-02-26T08:43:52;101056.47;;;18.63;34.05
62976;BME280;49071;0.000;0.000;2023-02-26T08:46:52;101053.28;;;18.55;34.35
62976;BME280;49071;0.000;0.000;2023-02-26T08:49:52;101064.00;;;18.51;34.48
62976;BME280;49071;0.000;0.000;2023-02-26T08:52:52;101071.09;;;18.49;34.54
62976;BME280;49071;0.000;0.000;2023-02-26T08:55:53;101076.47;;;18.46;34.91
62976;BME280;49071;0.000;0.000;2023-02-26T08:58:53;101095.00;;;18.42;35.03
62976;BME280;49071;0.000;0.000;2023-02-26T09:01:53;101095.06;;;18.41;34.90
62976;BME280;49071;0.000;0.000;2023-02-26T09:04:53;101097.69;;;18.41;35.05
62976;BME280;49071;0.000;0.000;2023-02-26T09:07:53;101099.34;;;18.44;34.96
62976;BME280;49071;0.000;0.000;2023-02-26T09:10:54;101105.38;;;18.46;35.04
62976;BME280;49071;0.000;0.000;2023-02-26T09:13:54;101119.31;;;18.48;34.99
62976;BME280;49071;0.000;0.000;2023-02-26T09:16:54;101120.03;;;18.51;35.36
62976;BME280;49071;0.000;0.000;2023-02-26T09:19:54;101118.81;;;18.60;35.03
62976;BME280;49071;0.000;0.000;2023-02-26T09:22:54;101127.16;;;18.70;34.71
62976;BME280;49071;0.000;0.000;2023-02-26T09:25:55;101142.75;;;18.74;34.79
62976;BME280;49071;0.000;0.000;2023-02-26T09:28:55;101153.00;;;18.80;34.81
62976;BME280;49071;0.000;0.000;2023-02-26T09:31:55;101152.56;;;18.90;34.82
62976;BME280;49071;0.000;0.000;2023-02-26T09:34:55;101160.06;;;18.99;34.95
62976;BME280;49071;0.000;0.000;2023-02-26T09:37:56;101165.00;;;19.06;34.85
62976;BME280;49071;0.000;0.000;2023-02-26T09:41:03;101165.66;;;19.11;34.86
62976;BME280;49071;0.000;0.000;2023-02-26T09:44:15;101169.72;;;19.19;34.75
62976;BME280;49071;0.000;0.000;2023-02-26T09:47:18;101175.78;;;19.21;34.65
62976;BME280;49071;0.000;0.000;2023-02-26T09:50:25;101176.91;;;19.15;34.71
62976;BME280;49071;0.000;0.000;2023-02-26T09:53:28;101181.31;;;19.15;34.83
62976;BME280;49071;0.000;0.000;2023-02-26T09:56:31;101182.03;;;19.18;34.70
62976;BME280;49071;0.000;0.000;2023-02-26T09:59:32;101187.34;;;19.17;34.78
62976;BME280;49071;0.000;0.000;2023-02-26T10:02:43;101184.91;;;19.12;35.02
62976;BME280;49071;0.000;0.000;2023-02-26T10:06:06;101180.34;;;18.97;35.35
62976;BME280;49071;0.000;0.000;2023-02-26T10:12:33;101196.28;;;18.72;35.83
62976;BME280;49071;0.000;0.000;2023-02-26T10:15:36;101202.91;;;18.58;35.85
62976;BME280;49071;0.000;0.000;2023-02-26T10:18:38;101213.03;;;18.47;35.93
62976;BME280;49071;0.000;0.000;2023-02-26T10:21:57;101219.59;;;18.35;35.97
62976;BME280;49071;0.000;0.000;2023-02-26T10:25:00;101221.81;;;18.24;36.03
62976;BME280;49071;0.000;0.000;2023-02-26T10:31:08;101227.28;;;18.18;36.20
62976;BME280;49071;0.000;0.000;2023-02-26T10:37:35;101244.47;;;18.27;36.32
62976;BME280;49071;0.000;0.000;2023-02-26T10:41:12;101240.00;;;18.29;35.93
62976;BME280;49071;0.000;0.000;2023-02-26T10:44:07;101249.50;;;18.33;36.26
62976;BME280;49071;0.000;0.000;2023-02-26T10:47:26;101253.63;;;18.38;36.37
62976;BME280;49071;0.000;0.000;2023-02-26T10:50:28;101257.06;;;18.40;36.47
62976;BME280;49071;0.000;0.000;2023-02-26T10:53:30;101262.97;;;18.46;36.28
62976;BME280;49071;0.000;0.000;2023-02-26T10:56:31;101262.72;;;18.52;36.26
62976;BME280;49071;0.000;0.000;2023-02-26T10:59:32;101259.66;;;18.62;36.02
62976;BME280;49071;0.000;0.000;2023-02-26T11:02:39;101265.44;;;18.72;35.85
62976;BME280;49071;0.000;0.000;2023-02-26T11:05:39;101258.84;;;18.84;35.77
62976;BME280;49071;0.000;0.000;2023-02-26T11:08:44;101263.94;;;19.09;36.66
62976;BME280;49071;0.000;0.000;2023-02-26T11:11:46;101272.81;;;19.27;36.75
62976;BME280;49071;0.000;0.000;2023-02-26T11:14:47;101276.56;;;19.42;36.04
62976;BME280;49071;0.000;0.000;2023-02-26T11:17:47;101275.16;;;19.53;36.28
62976;BME280;49071;0.000;0.000;2023-02-26T11:20:48;101266.25;;;19.57;35.74
62976;BME280;49071;0.000;0.000;2023-02-26T11:23:55;101274.44;;;19.70;35.69
62976;BME280;49071;0.000;0.000;2023-02-26T11:26:57;101273.53;;;19.71;35.50
62976;BME280;49071;0.000;0.000;2023-02-26T11:30:04;101280.38;;;19.75;35.82
62976;BME280;49071;0.000;0.000;2023-02-26T11:33:13;101283.16;;;19.72;36.27
62976;BME280;49071;0.000;0.000;2023-02-26T11:36:16;101288.53;;;19.69;36.10
62976;BME280;49071;0.000;0.000;2023-02-26T11:39:22;101287.13;;;19.61;36.66
62976;BME280;49071;0.000;0.000;2023-02-26T11:42:22;101291.63;;;19.58;37.08
62976;BME280;49071;0.000;0.000;2023-02-26T11:45:23;101293.53;;;19.55;37.38
62976;BME280;49071;0.000;0.000;2023-02-26T11:48:25;101297.22;;;19.51;37.29
62976;BME280;49071;0.000;0.000;2023-02-26T11:51:27;101300.16;;;19.43;37.58
62976;BME280;49071;0.000;0.000;2023-02-26T11:54:28;101301.34;;;19.36;38.06
62976;BME280;49071;0.000;0.000;2023-02-26T11:57:28;101302.63;;;19.27;38.45
62976;BME280;49071;0.000;0.000;2023-02-26T12:00:30;101311.59;;;19.22;38.23
62976;BME280;49071;0.000;0.000;2023-02-26T12:03:33;101309.03;;;19.20;38.72
62976;BME280;49071;0.000;0.000;2023-02-26T12:06:33;101306.44;;;18.98;38.23
62976;BME280;49071;0.000;0.000;2023-02-26T12:09:34;101301.03;;;18.81;38.00
62976;BME280;49071;0.000;0.000;2023-02-26T12:12:44;101300.56;;;18.70;38.41
62976;BME280;49071;0.000;0.000;2023-02-26T12:15:57;101298.31;;;18.60;38.26
62976;BME280;49071;0.000;0.000;2023-02-26T12:19:05;101301.16;;;18.54;38.11
62976;BME280;49071;0.000;0.000;2023-02-26T12:35:15;101295.22;;;18.49;39.10
62976;BME280;49071;0.000;0.000;2023-02-26T12:38:28;101295.84;;;18.56;39.52
62976;BME280;49071;0.000;0.000;2023-02-26T12:51:11;101317.31;;;19.11;39.59
62976;BME280;49071;0.000;0.000;2023-02-26T12:57:19;101333.25;;;19.28;39.59
62976;BME280;49071;0.000;0.000;2023-02-26T13:00:34;101355.63;;;19.39;39.34
62976;BME280;49071;0.000;0.000;2023-02-26T13:16:17;101359.91;;;19.19;39.32
62976;BME280;49071;0.000;0.000;2023-02-26T13:19:35;101358.81;;;19.03;39.34
62976;BME280;49071;0.000;0.000;2023-02-26T13:22:38;101355.97;;;18.87;39.28
62976;BME280;49071;0.000;0.000;2023-02-26T13:25:40;101349.53;;;18.72;39.29
62976;BME280;49071;0.000;0.000;2023-02-26T13:31:55;101358.22;;;18.51;39.09
62976;BME280;49071;0.000;0.000;2023-02-26T13:35:04;101353.94;;;18.48;39.45
62976;BME280;49071;0.000;0.000;2023-02-26T13:38:28;101348.69;;;18.48;39.31
62976;BME280;49071;0.000;0.000;2023-02-26T13:51:40;101374.16;;;18.70;38.90
62976;BME280;49071;0.000;0.000;2023-02-26T13:54:43;101375.69;;;18.75;38.87
62976;BME280;49071;0.000;0.000;2023-02-26T13:57:48;101374.63;;;18.81;38.63
62976;BME280;49071;0.000;0.000;2023-02-26T14:00:57;101376.09;;;18.88;38.38
62976;BME280;49071;0.000;0.000;2023-02-26T14:04:06;101373.22;;;18.94;38.65
62976;BME280;49071;0.000;0.000;2023-02-26T14:10:14;101377.69;;;19.14;38.24
62976;BME280;49071;0.000;0.000;2023-02-26T14:13:19;101374.00;;;19.18;37.91
62976;BME280;49071;0.000;0.000;2023-02-26T14:16:26;101379.19;;;19.20;38.10
62976;BME280;49071;0.000;0.000;2023-02-26T14:19:35;101380.19;;;19.17;38.14
62976;BME280;49071;0.000;0.000;2023-02-26T14:22:36;101381.16;;;19.15;37.92
62976;BME280;49071;0.000;0.000;2023-02-26T14:25:44;101387.50;;;19.09;38.04
62976;BME280;49071;0.000;0.000;2023-02-26T14:28:56;101385.94;;;19.05;38.07
62976;BME280;49071;0.000;0.000;2023-02-26T14:35:11;101403.09;;;18.92;38.12
62976;BME280;49071;0.000;0.000;2023-02-26T14:38:17;101398.16;;;18.84;38.05
62976;BME280;49071;0.000;0.000;2023-02-26T14:41:24;101401.97;;;18.75;38.32
62976;BME280;49071;0.000;0.000;2023-02-26T14:44:27;101402.28;;;18.66;38.49
62976;BME280;49071;0.000;0.000;2023-02-26T14:47:28;101396.38;;;18.61;38.67
62976;BME280;49071;0.000;0.000;2023-02-26T14:50:31;101401.66;;;18.59;38.77
62976;BME280;49071;0.000;0.000;2023-02-26T14:56:46;101407.72;;;18.61;38.78
62976;BME280;49071;0.000;0.000;2023-02-26T15:19:04;101433.03;;;19.11;38.78
62976;BME280;49071;0.000;0.000;2023-02-26T15:25:15;101435.88;;;19.27;38.37
62976;BME280;49071;0.000;0.000;2023-02-26T15:28:26;101430.31;;;19.34;38.21
62976;BME280;49071;0.000;0.000;2023-02-26T15:31:29;101432.84;;;19.38;38.12
62976;BME280;49071;0.000;0.000;2023-02-26T15:34:30;101433.81;;;19.35;38.10
62976;BME280;49071;0.000;0.000;2023-02-26T15:37:32;101436.47;;;19.33;37.97
62976;BME280;49071;0.000;0.000;2023-02-26T15:40:34;101439.31;;;19.29;38.41
62976;BME280;49071;0.000;0.000;2023-02-26T15:43:36;101435.09;;;19.25;38.48
62976;BME280;49071;0.000;0.000;2023-02-26T15:46:38;101440.66;;;19.17;38.50
62976;BME280;49071;0.000;0.000;2023-02-26T15:49:39;101441.03;;;19.08;38.82
62976;BME280;49071;0.000;0.000;2023-02-26T15:52:41;101453.66;;;18.98;38.78
62976;BME280;49071;0.000;0.000;2023-02-26T15:55:46;101456.59;;;18.91;38.66
62976;BME280;49071;0.000;0.000;2023-02-26T15:59:05;101451.75;;;18.80;38.93
62976;BME280;49071;0.000;0.000;2023-02-26T16:02:09;101459.88;;;18.74;39.30
62976;BME280;49071;0.000;0.000;2023-02-26T16:05:11;101463.53;;;18.68;39.40
62976;BME280;49071;0.000;0.000;2023-02-26T16:08:13;101471.53;;;18.65;39.59
62976;BME280;49071;0.000;0.000;2023-02-26T16:11:17;101469.84;;;18.64;39.57
62976;BME280;49071;0.000;0.000;2023-02-26T16:14:23;101468.78;;;18.68;39.43
62976;BME280;49071;0.000;0.000;2023-02-26T16:17:26;101479.91;;;18.76;39.57
62976;BME280;49071;0.000;0.000;2023-02-26T16:20:27;101479.84;;;18.78;39.51
62976;BME280;49071;0.000;0.000;2023-02-26T16:23:37;101481.34;;;18.85;39.47
62976;BME280;49071;0.000;0.000;2023-02-26T16:26:40;101492.47;;;18.92;39.36
62976;BME280;49071;0.000;0.000;2023-02-26T16:29:46;101498.28;;;19.00;39.29
62976;BME280;49071;0.000;0.000;2023-02-26T16:32:49;101501.66;;;19.03;39.14
62976;BME280;49071;0.000;0.000;2023-02-26T16:36:02;101501.50;;;19.08;39.28
62976;BME280;49071;0.000;0.000;2023-02-26T16:42:13;101515.94;;;19.20;39.00
62976;BME280;49071;0.000;0.000;2023-02-26T16:45:56;101523.78;;;19.21;38.99
62976;BME280;49071;0.000;0.000;2023-02-26T16:48:43;101529.94;;;19.20;38.90
62976;BME280;49071;0.000;0.000;2023-02-26T16:51:45;101531.72;;;19.20;38.78
62976;BME280;49071;0.000;0.000;2023-02-26T16:54:51;101533.50;;;19.19;39.03
62976;BME280;49071;0.000;0.000;2023-02-26T16:57:52;101536.94;;;19.21;39.12
62976;BME280;49071;0.000;0.000;2023-02-26T17:00:55;101541.50;;;19.16;38.85
62976;BME280;49071;0.000;0.000;2023-02-26T17:04:00;101542.66;;;19.09;39.03
62976;BME280;49071;0.000;0.000;2023-02-26T17:07:16;101546.34;;;19.03;39.25
62976;BME280;49071;0.000;0.000;2023-02-26T17:10:31;101556.28;;;18.97;39.24
62976;BME280;49071;0.000;0.000;2023-02-26T17:13:32;101551.16;;;18.92;39.61
62976;BME280;49071;0.000;0.000;2023-02-26T17:16:32;101552.25;;;18.86;39.89
62976;BME280;49071;0.000;0.000;2023-02-26T17:19:32;101559.34;;;18.84;39.73
62976;BME280;49071;0.000;0.000;2023-02-26T17:22:33;101560.09;;;18.88;39.88
62976;BME280;49071;0.000;0.000;2023-02-26T17:25:34;101567.91;;;18.90;39.79
62976;BME280;49071;0.000;0.000;2023-02-26T17:28:36;101566.94;;;18.92;39.76
62976;BME280;49071;0.000;0.000;2023-02-26T17:31:38;101568.53;;;18.96;39.41
62976;BME280;49071;0.000;0.000;2023-02-26T17:34:42;101577.13;;;19.01;39.43
62976;BME280;49071;0.000;0.000;2023-02-26T17:37:42;101587.34;;;19.09;39.60
62976;BME280;49071;0.000;0.000;2023-02-26T17:40:44;101582.69;;;19.17;39.40
62976;BME280;49071;0.000;0.000;2023-02-26T17:43:46;101586.72;;;19.26;39.39
62976;BME280;49071;0.000;0.000;2023-02-26T17:46:46;101591.88;;;19.29;39.11
62976;BME280;49071;0.000;0.000;2023-02-26T17:49:46;101602.47;;;19.27;39.12
62976;BME280;49071;0.000;0.000;2023-02-26T17:52:47;101598.84;;;19.30;39.42
62976;BME280;49071;0.000;0.000;2023-02-26T17:55:48;101593.66;;;19.28;38.99
62976;BME280;49071;0.000;0.000;2023-02-26T17:58:48;101603.47;;;19.23;39.38
62976;BME280;49071;0.000;0.000;2023-02-26T18:01:49;101607.94;;;19.21;39.33
62976;BME280;49071;0.000;0.000;2023-02-26T18:04:49;101607.97;;;19.20;39.45
62976;BME280;49071;0.000;0.000;2023-02-26T18:07:49;101617.75;;;19.16;39.30
62976;BME280;49071;0.000;0.000;2023-02-26T18:10:49;101612.16;;;19.02;39.42
62976;BME280;49071;0.000;0.000;2023-02-26T18:13:50;101621.41;;;18.88;39.33
62976;BME280;49071;0.000;0.000;2023-02-26T18:16:51;101618.09;;;18.83;39.28
62976;BME280;49071;0.000;0.000;2023-02-26T18:19:51;101620.00;;;18.78;39.69
62976;BME280;49071;0.000;0.000;2023-02-26T18:22:52;101618.44;;;18.73;39.56
62976;BME280;49071;0.000;0.000;2023-02-26T18:25:52;101620.41;;;18.66;39.93
62976;BME280;49071;0.000;0.000;2023-02-26T18:28:53;101624.16;;;18.59;39.95
62976;BME280;49071;0.000;0.000;2023-02-26T18:31:54;101626.84;;;18.57;39.91
62976;BME280;49071;0.000;0.000;2023-02-26T18:34:54;101623.28;;;18.58;40.25
62976;BME280;49071;0.000;0.000;2023-02-26T18:37:55;101629.38;;;18.60;40.06
62976;BME280;49071;0.000;0.000;2023-02-26T18:40:55;101628.34;;;18.64;40.09
62976;BME280;49071;0.000;0.000;2023-02-26T18:43:57;101630.81;;;18.69;40.22
62976;BME280;49071;0.000;0.000;2023-02-26T18:47:00;101633.34;;;18.72;39.94
62976;BME280;49071;0.000;0.000;2023-02-26T18:50:00;101641.97;;;18.77;39.70
62976;BME280;49071;0.000;0.000;2023-02-26T18:53:00;101645.28;;;18.82;39.81
62976;BME280;49071;0.000;0.000;2023-02-26T18:56:01;101651.28;;;18.86;39.87
62976;BME280;49071;0.000;0.000;2023-02-26T18:59:02;101645.91;;;18.89;39.75
62976;BME280;49071;0.000;0.000;2023-02-26T19:02:03;101647.47;;;18.95;39.53
62976;BME280;49071;0.000;0.000;2023-02-26T19:05:04;101653.38;;;19.01;39.69
62976;BME280;49071;0.000;0.000;2023-02-26T19:08:04;101661.84;;;19.09;39.57
62976;BME280;49071;0.000;0.000;2023-02-26T19:11:05;101665.75;;;19.23;39.32
62976;BME280;49071;0.000;0.000;2023-02-26T19:14:05;101671.41;;;19.35;39.10
62976;BME280;49071;0.000;0.000;2023-02-26T19:17:05;101666.78;;;19.42;39.15
62976;BME280;49071;0.000;0.000;2023-02-26T19:20:05;101673.75;;;19.43;38.76
62976;BME280;49071;0.000;0.000;2023-02-26T19:23:06;101673.72;;;19.45;39.01
62976;BME280;49071;0.000;0.000;2023-02-26T19:26:08;101686.13;;;19.41;38.96
62976;BME280;49071;0.000;0.000;2023-02-26T19:29:09;101683.72;;;19.35;39.15
62976;BME280;49071;0.000;0.000;2023-02-26T19:32:12;101689.16;;;19.30;38.96
62976;BME280;49071;0.000;0.000;2023-02-26T19:35:12;101702.47;;;19.26;38.91
62976;BME280;49071;0.000;0.000;2023-02-26T19:38:12;101701.78;;;19.21;38.98
62976;BME280;49071;0.000;0.000;2023-02-26T19:41:12;101698.53;;;19.13;39.10
62976;BME280;49071;0.000;0.000;2023-02-26T19:44:13;101704.09;;;19.05;39.16
62976;BME280;49071;0.000;0.000;2023-02-26T19:47:13;101705.22;;;18.98;39.22
62976;BME280;49071;0.000;0.000;2023-02-26T19:50:13;101711.63;;;18.89;39.42
62976;BME280;49071;0.000;0.000;2023-02-26T19:53:14;101706.72;;;18.80;39.06
62976;BME280;49071;0.000;0.000;2023-02-26T19:56:15;101720.06;;;18.74;39.60
62976;BME280;49071;0.000;0.000;2023-02-26T19:59:15;101718.41;;;18.70;39.32
62976;BME280;49071;0.000;0.000;2023-02-26T20:02:15;101722.88;;;18.66;39.54
62976;BME280;49071;0.000;0.000;2023-02-26T20:05:15;101729.88;;;18.67;39.56
62976;BME280;49071;0.000;0.000;2023-02-26T20:08:17;101720.97;;;18.71;39.58
62976;BME280;49071;0.000;0.000;2023-02-26T20:11:17;101726.19;;;18.73;39.78
62976;BME280;49071;0.000;0.000;2023-02-26T20:14:17;101727.94;;;18.74;39.65
62976;BME280;49071;0.000;0.000;2023-02-26T20:17:18;101727.78;;;18.78;39.51
62976;BME280;49071;0.000;0.000;2023-02-26T20:20:18;101733.78;;;18.82;39.47
62976;BME280;49071;0.000;0.000;2023-02-26T20:23:19;101733.53;;;18.90;39.00
62976;BME280;49071;0.000;0.000;2023-02-26T20:26:19;101735.84;;;18.99;39.01
62976;BME280;49071;0.000;0.000;2023-02-26T20:29:20;101747.06;;;19.04;39.23
62976;BME280;49071;0.000;0.000;2023-02-26T20:32:22;101755.66;;;19.09;38.86
62976;BME280;49071;0.000;0.000;2023-02-26T20:35:23;101759.69;;;19.19;38.89
62976;BME280;49071;0.000;0.000;2023-02-26T20:38:24;101760.31;;;19.26;38.60
62976;BME280;49071;0.000;0.000;2023-02-26T20:41:24;101762.44;;;19.41;38.54
62976;BME280;49071;0.000;0.000;2023-02-26T20:44:24;101760.44;;;19.48;38.62
62976;BME280;49071;0.000;0.000;2023-02-26T20:47:24;101761.19;;;19.51;38.31
62976;BME280;49071;0.000;0.000;2023-02-26T20:50:24;101769.13;;;19.50;38.48
62976;BME280;49071;0.000;0.000;2023-02-26T20:53:25;101770.09;;;19.47;38.37
62976;BME280;49071;0.000;0.000;2023-02-26T20:56:25;101770.34;;;19.40;37.93
62976;BME280;49071;0.000;0.000;2023-02-26T20:59:25;101775.59;;;19.41;37.91
62976;BME280;49071;0.000;0.000;2023-02-26T21:02:25;101785.47;;;19.34;37.67
62976;BME280;49071;0.000;0.000;2023-02-26T21:05:26;101784.81;;;19.28;38.03
